Spring's Hourly Summary for Sunday, May 13, 2018
Hour Temp
(f)
RH
(%)
Solar Rad.
(MJ/m2)
Rainfall
(in)
Wind
(mph)
5/13/2018 12:00 AM 76 82 0 0 4.7
5/13/2018 1:00 AM 76 83 0 0 2.84
5/13/2018 2:00 AM 74 86 0 0 0.2
5/13/2018 3:00 AM 74 90 0 0 1.43
5/13/2018 4:00 AM 74 90 0 0 1.47
5/13/2018 5:00 AM 73 92 0 0 0.24
5/13/2018 6:00 AM 73 93 0 0 0.01
5/13/2018 7:00 AM 72 96 0.02 0 0
5/13/2018 8:00 AM 73 89 0.37 0 0.36
5/13/2018 9:00 AM 77 79 0.98 0 3.54
5/13/2018 10:00 AM 80 68 1.67 0 5.77
5/13/2018 11:00 AM 82 62 1.8 0 5.76
5/13/2018 12:00 PM 84 54 2.39 0 5.94
5/13/2018 1:00 PM 87 48 2.95 0 5.68
5/13/2018 2:00 PM 88 45 2.84 0 5.74
5/13/2018 3:00 PM 89 47 2.85 0 6.37
5/13/2018 4:00 PM 88 46 1.67 0 6.86
5/13/2018 5:00 PM 87 51 0.97 0 6.6
5/13/2018 6:00 PM 87 52 1.41 0 7.47
5/13/2018 7:00 PM 85 54 0.56 0 6.47
5/13/2018 8:00 PM 84 54 0.26 0 5.74
5/13/2018 9:00 PM 81 62 0.01 0 4.78
5/13/2018 10:00 PM 79 70 0 0 4.4
5/13/2018 11:00 PM 78 75 0 0 6.04
Data Summary 80 69 20.75 0.00 4.10